4XCBD SCBA-SCPC

Flight info

Callsign 4XCBD
Flight time N/A
Altitude 15000
Route BAL TEN MON ERUKA
Aircraft CAV/M-V/N

Departure

Time 2026-05-04 16:28
Airport Balmaceda Airport (SCBA)

Arrival

Time N/A
Airport Pucón Airport (SCPC)
Time Latitude Longitude Altitude Speed Heading
2026-05-04 16:20 -45.91784 -71.67410 1670 ft 0 kts 280°
2026-05-04 16:26 -45.91725 -71.67884 1679 ft 66 kts 282°
2026-05-04 16:27 -45.91671 -71.68241 1685 ft 60 kts 278°
2026-05-04 16:28 -45.90984 -71.72101 4477 ft 151 kts 317°
2026-05-04 16:28 -45.87298 -71.72867 8049 ft 189 kts 339°
2026-05-04 16:29 -45.80789 -71.75577 10028 ft 316 kts 347°
2026-05-04 16:30 -45.73932 -71.77505 10200 ft 350 kts 348°
2026-05-04 16:31 -45.69148 -71.78987 10063 ft 356 kts 343°
2026-05-04 16:31 -45.62376 -71.81905 9984 ft 349 kts 341°
2026-05-04 16:32 -45.55556 -71.84772 9990 ft 321 kts 345°
2026-05-04 16:33 -45.51341 -71.86274 9989 ft 304 kts 345°
2026-05-04 16:33 -45.47322 -71.87694 9992 ft 295 kts 345°
2026-05-04 16:34 -45.43398 -71.89080 9992 ft 290 kts 345°
2026-05-04 16:34 -45.41445 -71.89773 9988 ft 289 kts 345°
2026-05-04 16:35 -45.35627 -71.91817 9989 ft 285 kts 345°
2026-05-04 16:35 -45.29734 -71.93897 9997 ft 300 kts 345°
2026-05-04 16:36 -45.27692 -71.94616 9998 ft 305 kts 345°
2026-05-04 16:36 -45.23556 -71.96084 10007 ft 312 kts 345°
2026-05-04 16:37 -45.19275 -71.97607 10009 ft 316 kts 345°
2026-05-04 16:37 -45.17139 -71.98365 10003 ft 317 kts 345°
2026-05-04 16:37 -45.12830 -71.99908 10005 ft 321 kts 345°
2026-05-04 16:38 -45.08493 -72.01468 10002 ft 324 kts 345°
2026-05-04 16:39 -45.01900 -72.03826 10010 ft 326 kts 345°
2026-05-04 16:39 -44.97529 -72.05388 10009 ft 326 kts 345°
2026-05-04 16:40 -44.93136 -72.06962 10008 ft 325 kts 345°
2026-05-04 16:40 -44.88746 -72.08540 10006 ft 326 kts 345°
2026-05-04 16:41 -44.84387 -72.10101 10002 ft 326 kts 345°
2026-05-04 16:41 -44.77776 -72.12475 9999 ft 323 kts 345°
2026-05-04 16:42 -44.71254 -72.14810 10001 ft 321 kts 345°
2026-05-04 16:43 -44.66935 -72.16357 10001 ft 322 kts 344°
2026-05-04 16:43 -44.62581 -72.17915 10004 ft 324 kts 345°
2026-05-04 16:43 -44.60395 -72.18695 10001 ft 325 kts 345°
2026-05-04 16:44 -44.51627 -72.21822 10003 ft 325 kts 345°
2026-05-04 16:45 -44.47216 -72.23401 10004 ft 326 kts 345°
2026-05-04 16:46 -44.40625 -72.25751 10007 ft 327 kts 345°
2026-05-04 16:46 -44.36222 -72.27319 10001 ft 326 kts 344°
2026-05-04 16:47 -44.31873 -72.28874 10310 ft 317 kts 344°
2026-05-04 16:47 -44.27665 -72.30377 10751 ft 307 kts 345°
2026-05-04 16:48 -44.21439 -72.32595 10984 ft 312 kts 345°
2026-05-04 16:48 -44.19330 -72.33356 10990 ft 315 kts 344°
2026-05-04 16:49 -44.15077 -72.34882 10997 ft 319 kts 345°
2026-05-04 16:49 -44.10754 -72.36431 11000 ft 321 kts 345°
2026-05-04 16:50 -44.06417 -72.37995 10997 ft 324 kts 344°
2026-05-04 16:50 -44.02041 -72.39568 11000 ft 325 kts 344°
2026-05-04 16:51 -43.97682 -72.41135 11005 ft 326 kts 344°
2026-05-04 16:51 -43.95479 -72.41926 11005 ft 326 kts 344°
2026-05-04 16:51 -43.91089 -72.43506 11006 ft 326 kts 344°
2026-05-04 16:52 -43.86700 -72.45088 11006 ft 326 kts 344°
2026-05-04 16:52 -43.84508 -72.45876 11006 ft 325 kts 344°
2026-05-04 16:53 -43.80111 -72.47476 11005 ft 327 kts 344°
2026-05-04 16:53 -43.73530 -72.49848 11005 ft 327 kts 344°
2026-05-04 16:54 -43.71327 -72.50641 11004 ft 327 kts 344°
2026-05-04 16:55 -43.62516 -72.53812 11005 ft 327 kts 345°
2026-05-04 16:55 -43.58119 -72.55400 11005 ft 326 kts 344°
2026-05-04 16:56 -43.53732 -72.56982 11005 ft 325 kts 344°
2026-05-04 16:56 -43.47128 -72.59369 10600 ft 334 kts 344°
2026-05-04 16:57 -43.44860 -72.60176 10335 ft 339 kts 344°
2026-05-04 16:57 -43.40230 -72.61850 9798 ft 347 kts 344°
2026-05-04 16:58 -43.33189 -72.64387 9084 ft 350 kts 344°
2026-05-04 16:58 -43.30848 -72.65241 9035 ft 345 kts 344°
2026-05-04 16:59 -43.26238 -72.66919 9005 ft 340 kts 344°
2026-05-04 17:00 -43.17244 -72.70166 8991 ft 329 kts 344°
2026-05-04 17:00 -43.12343 -72.75445 8990 ft 303 kts 279°
2026-05-04 17:01 -43.13716 -72.80296 8991 ft 274 kts 219°
2026-05-04 17:01 -43.17182 -72.80617 8994 ft 259 kts 152°
2026-05-04 17:02 -43.20070 -72.77824 8988 ft 248 kts 143°
2026-05-04 17:02 -43.20643 -72.74392 8877 ft 256 kts 11°
2026-05-04 17:03 -43.18914 -72.75630 7394 ft 332 kts 320°
2026-05-04 17:03 -43.17156 -72.77075 9944 ft 243 kts 332°
2026-05-04 17:03 -43.14095 -72.79270 12268 ft 254 kts 315°
2026-05-04 17:04 -43.14275 -72.83367 13120 ft 294 kts 208°
2026-05-04 17:04 -43.17868 -72.79434 10681 ft 422 kts 114°
2026-05-04 17:05 -43.20185 -72.72640 10909 ft 374 kts 116°
2026-05-04 17:05 -43.20786 -72.66339 10745 ft 343 kts 43°
2026-05-04 17:06 -43.16997 -72.67029 10985 ft 312 kts 294°
2026-05-04 17:06 -43.16981 -72.69963 10631 ft 316 kts 259°
2026-05-04 17:07 -43.17156 -72.76010 10126 ft 314 kts 277°
2026-05-04 17:07 -43.16981 -72.77973 9980 ft 314 kts 276°
2026-05-04 17:07 -43.16647 -72.82010 9470 ft 321 kts 276°
2026-05-04 17:07 -43.16422 -72.85014 9401 ft 314 kts 270°
2026-05-04 17:08 -43.16997 -72.87595 10659 ft 258 kts 233°
2026-05-04 17:08 -43.19320 -72.86531 10736 ft 278 kts 99°
2026-05-04 17:08 -43.19548 -72.83626 8993 ft 336 kts 95°
2026-05-04 17:09 -43.20473 -72.80689 8932 ft 329 kts 138°
2026-05-04 17:09 -43.22346 -72.79559 10347 ft 261 kts 167°
2026-05-04 17:09 -43.23883 -72.79102 11932 ft 203 kts 171°
2026-05-04 17:10 -43.24435 -72.76519 12356 ft 210 kts 19°
2026-05-04 17:10 -43.19197 -72.78096 10888 ft 284 kts 349°
2026-05-04 17:11 -43.17264 -72.78640 10915 ft 282 kts 340°
2026-05-04 17:11 -43.16173 -72.80359 11977 ft 236 kts 265°
2026-05-04 17:11 -43.18383 -72.79245 9202 ft 341 kts 89°
2026-05-04 17:12 -43.17038 -72.76530 8909 ft 337 kts 38°
2026-05-04 17:12 -43.13689 -72.73536 10651 ft 275 kts 19°
2026-05-04 17:13 -43.11523 -72.74486 11204 ft 255 kts 207°
2026-05-04 17:14 -43.13582 -72.80183 11865 ft 231 kts 261°
2026-05-04 17:14 -43.13784 -72.83163 12012 ft 225 kts 293°
2026-05-04 17:14 -43.12367 -72.81880 11484 ft 273 kts 132°
2026-05-04 17:15 -43.14276 -72.80779 9903 ft 323 kts 162°
2026-05-04 17:15 -43.17367 -72.77876 10263 ft 298 kts 105°
2026-05-04 17:16 -43.14632 -72.75005 11366 ft 246 kts 13°
2026-05-04 17:16 -43.15318 -72.77094 10137 ft 308 kts 171°
2026-05-04 17:17 -43.17260 -72.75655 9716 ft 322 kts 135°
2026-05-04 17:17 -43.17153 -72.69373 10004 ft 309 kts 11°
2026-05-04 17:18 -43.15078 -72.70028 10155 ft 291 kts 320°
2026-05-04 17:18 -43.13818 -72.74378 11313 ft 255 kts 296°
2026-05-04 17:19 -43.10718 -72.75085 10353 ft 303 kts 60°
2026-05-04 17:19 -43.08629 -72.71122 12323 ft 222 kts 27°
2026-05-04 17:20 -43.05427 -72.72085 11571 ft 262 kts 332°
2026-05-04 17:20 -43.02613 -72.74414 12503 ft 236 kts 313°
2026-05-04 17:20 -43.01116 -72.75439 12106 ft 263 kts
2026-05-04 17:21 -42.99637 -72.71656 12102 ft 275 kts 129°
2026-05-04 17:21 -43.03266 -72.70583 12319 ft 266 kts 168°
2026-05-04 17:22 -43.04638 -72.68993 11928 ft 288 kts 109°
2026-05-04 17:22 -43.04241 -72.66267 11217 ft 314 kts 54°
2026-05-04 17:23 -43.00397 -72.61586 12973 ft 252 kts 28°
2026-05-04 17:23 -42.98647 -72.60404 11971 ft 300 kts 23°
2026-05-04 17:23 -42.95144 -72.58103 12795 ft 272 kts 37°
2026-05-04 17:24 -42.93900 -72.56202 13029 ft 268 kts 58°
2026-05-04 17:24 -42.93994 -72.48830 12956 ft 282 kts 124°
2026-05-04 17:25 -42.95371 -72.46899 12836 ft 287 kts 146°
2026-05-04 17:25 -42.99206 -72.45516 12609 ft 292 kts 181°
2026-05-04 17:26 -43.03310 -72.45753 12386 ft 297 kts 184°
2026-05-04 17:26 -43.09473 -72.46298 12545 ft 286 kts 185°
2026-05-04 17:27 -43.13307 -72.46636 13132 ft 267 kts 185°
2026-05-04 17:27 -43.17086 -72.46966 13714 ft 284 kts 185°
2026-05-04 17:28 -43.20108 -72.50212 14310 ft 300 kts 250°
2026-05-04 17:29 -43.18048 -72.58382 14407 ft 348 kts 325°
2026-05-04 17:29 -43.10744 -72.58076 14406 ft 381 kts 21°
2026-05-04 17:30 -43.03404 -72.53447 14410 ft 375 kts 25°
2026-05-04 17:31 -42.99014 -72.50447 14388 ft 334 kts 14°
2026-05-04 17:31 -42.93516 -72.53553 14389 ft 293 kts 303°
2026-05-04 17:32 -42.92968 -72.58714 14391 ft 278 kts 252°
2026-05-04 17:33 -42.94340 -72.65956 14390 ft 265 kts 290°
2026-05-04 17:33 -42.93230 -72.67910 14392 ft 265 kts 324°
2026-05-04 17:34 -42.87965 -72.69725 14389 ft 262 kts
2026-05-04 17:34 -42.86175 -72.69287 14393 ft 261 kts 12°
2026-05-04 17:35 -42.81070 -72.66789 14397 ft 258 kts 20°
2026-05-04 17:35 -42.78157 -72.64152 14390 ft 260 kts 64°
2026-05-04 17:35 -42.77921 -72.61752 14389 ft 260 kts 101°
2026-05-04 17:36 -42.78753 -72.59651 14390 ft 258 kts 137°
2026-05-04 17:36 -42.80338 -72.58624 14395 ft 254 kts 175°
2026-05-04 17:36 -42.82066 -72.58944 14405 ft 251 kts 197°
2026-05-04 17:36 -42.83725 -72.59689 14411 ft 251 kts 201°
2026-05-04 17:37 -42.85369 -72.60514 14349 ft 254 kts 201°
2026-05-04 17:37 -42.87056 -72.61379 14087 ft 264 kts 202°
2026-05-04 17:37 -42.88767 -72.62462 13765 ft 287 kts 221°
2026-05-04 17:37 -42.89471 -72.65123 12929 ft 337 kts 280°
2026-05-04 17:38 -42.87772 -72.67266 11959 ft 376 kts 355°
2026-05-04 17:38 -42.85414 -72.65728 10961 ft 382 kts 38°
2026-05-04 17:38 -42.83501 -72.63448 10878 ft 358 kts 42°
2026-05-04 17:38 -42.81648 -72.61074 11418 ft 362 kts 43°
2026-05-04 17:39 -42.78160 -72.56180 13424 ft 349 kts 44°
2026-05-04 17:39 -42.76723 -72.53971 16060 ft 275 kts 62°
2026-05-04 17:39 -42.76680 -72.51707 18230 ft 235 kts 121°
2026-05-04 17:40 -42.78045 -72.50657 18526 ft 256 kts 188°
2026-05-04 17:40 -42.79458 -72.52386 16782 ft 332 kts 247°
2026-05-04 17:40 -42.80665 -72.55601 15305 ft 411 kts 232°
2026-05-04 17:40 -42.83055 -72.57385 16296 ft 401 kts 179°
2026-05-04 17:41 -42.85538 -72.56928 19030 ft 314 kts 183°
2026-05-04 17:41 -42.87431 -72.58131 20037 ft 318 kts 230°
2026-05-04 17:41 -42.88169 -72.61293 16950 ft 409 kts 277°
2026-05-04 17:41 -42.86195 -72.64458 13754 ft 505 kts 343°
2026-05-04 17:42 -42.83230 -72.62463 12234 ft 530 kts 62°
2026-05-04 17:42 -42.83070 -72.58272 16155 ft 372 kts 116°
2026-05-04 17:42 -42.84832 -72.56397 20007 ft 323 kts 167°
2026-05-04 17:42 -42.87085 -72.56874 18926 ft 357 kts 213°
2026-05-04 17:43 -42.88110 -72.60027 15198 ft 0 kts 284°